Time;durP1;ratioP1;P1;durP2;ratioP2;P2;SDS_P1;SDS_P2;PMS_P1;PMS_P2;Temp;Humidity;BMP_temperature;BMP_pressure;BME280_temperature;BME280_humidity;BME280_pressure;Samples;Min_cycle;Max_cycle;Signal;HPM_P1;HPM_P2
2023/11/08 00:01:03;;;;;;;;;;;;;;;16.70;51.41;99216.31;10325431;28;908;-78
2023/11/08 00:05:59;;;;;;;;;;;;;;;16.69;51.51;99209.34;10324727;28;1965;-78
2023/11/08 00:10:55;;;;;;;;;;;;;;;16.67;51.31;99201.53;10326051;28;830;-78
2023/11/08 00:15:51;;;;;;;;;;;;;;;16.65;51.65;99206.00;10325305;28;869;-78
2023/11/08 00:20:46;;;;;;;;;;;;;;;16.62;51.60;99214.91;10325052;28;858;-78
2023/11/08 00:25:43;;;;;;;;;;;;;;;16.60;51.53;99221.16;10325468;28;1901;-78
2023/11/08 00:30:39;;;;;;;;;;;;;;;16.56;51.60;99223.09;10324509;28;1164;-78
2023/11/08 00:35:35;;;;;;;;;;;;;;;16.55;51.60;99225.78;10325414;28;783;-80
2023/11/08 00:40:30;;;;;;;;;;;;;;;16.55;51.74;99228.41;10324671;28;865;-79
2023/11/08 00:45:26;;;;;;;;;;;;;;;16.51;51.71;99240.00;10323840;28;1967;-78
2023/11/08 00:50:22;;;;;;;;;;;;;;;16.50;51.89;99238.28;10324530;28;803;-79
2023/11/08 00:55:18;;;;;;;;;;;;;;;16.49;51.93;99242.72;10324964;28;853;-79
2023/11/08 01:00:14;;;;;;;;;;;;;;;16.48;52.00;99248.91;10325006;28;819;-78
2023/11/08 01:05:10;;;;;;;;;;;;;;;16.47;52.09;99241.06;10331641;28;1954;-78
2023/11/08 01:10:06;;;;;;;;;;;;;;;16.44;52.13;99242.06;10331011;28;1401;-78
2023/11/08 01:15:02;;;;;;;;;;;;;;;16.40;52.13;99236.09;10330737;28;854;-78
2023/11/08 01:19:58;;;;;;;;;;;;;;;16.40;52.19;99243.09;10332076;28;837;-78
2023/11/08 01:24:54;;;;;;;;;;;;;;;16.37;51.97;99243.25;10331000;28;1898;-79
2023/11/08 01:29:50;;;;;;;;;;;;;;;16.35;52.28;99245.97;10331072;28;1274;-79
2023/11/08 01:34:45;;;;;;;;;;;;;;;16.36;52.07;99241.56;10331309;28;892;-78
2023/11/08 01:39:41;;;;;;;;;;;;;;;16.34;52.30;99249.50;10331151;28;905;-78
2023/11/08 01:44:38;;;;;;;;;;;;;;;16.33;52.21;99247.81;10330508;28;1910;-78
2023/11/08 01:49:34;;;;;;;;;;;;;;;16.31;52.17;99249.66;10330177;28;900;-78
2023/11/08 01:54:30;;;;;;;;;;;;;;;16.32;52.39;99261.03;10330027;28;774;-78
2023/11/08 01:59:26;;;;;;;;;;;;;;;16.29;52.31;99262.00;10329788;28;767;-78
2023/11/08 02:04:21;;;;;;;;;;;;;;;16.26;52.36;99253.41;10329447;28;1953;-78
2023/11/08 02:09:18;;;;;;;;;;;;;;;16.26;52.30;99256.03;10329418;28;901;-78
2023/11/08 02:14:14;;;;;;;;;;;;;;;16.25;52.44;99255.19;10328129;28;859;-79
2023/11/08 02:19:10;;;;;;;;;;;;;;;16.25;52.41;99249.94;10329645;28;790;-79
2023/11/08 02:24:06;;;;;;;;;;;;;;;16.23;52.26;99249.16;10329236;28;1947;-78
2023/11/08 02:29:02;;;;;;;;;;;;;;;16.21;52.55;99249.19;10328396;28;1334;-78
2023/11/08 02:33:58;;;;;;;;;;;;;;;16.22;52.43;99250.06;10328518;28;857;-79
2023/11/08 02:38:55;;;;;;;;;;;;;;;16.20;52.40;99265.91;10328681;28;815;-78
2023/11/08 02:43:51;;;;;;;;;;;;;;;16.20;52.47;99267.69;10327769;28;1971;-78
2023/11/08 02:48:47;;;;;;;;;;;;;;;16.17;52.44;99275.72;10328361;28;916;-78
2023/11/08 02:53:43;;;;;;;;;;;;;;;16.16;52.57;99266.94;10326912;28;992;-79
2023/11/08 02:58:39;;;;;;;;;;;;;;;16.16;52.50;99266.09;10327481;28;771;-78
2023/11/08 03:03:35;;;;;;;;;;;;;;;16.15;52.71;99274.94;10327110;28;1897;-78
2023/11/08 03:08:33;;;;;;;;;;;;;;;16.15;52.65;99259.16;10327031;28;794;-78
2023/11/08 03:13:29;;;;;;;;;;;;;;;16.14;52.72;99265.34;10326697;28;917;-79
2023/11/08 03:18:25;;;;;;;;;;;;;;;16.12;52.58;99270.66;10326634;28;877;-78
2023/11/08 03:23:22;;;;;;;;;;;;;;;16.12;52.63;99269.81;10326211;28;1906;-78
2023/11/08 03:28:18;;;;;;;;;;;;;;;16.09;52.77;99277.84;10326008;28;945;-78
2023/11/08 03:33:14;;;;;;;;;;;;;;;16.10;52.74;99279.53;10326604;28;1314;-78
2023/11/08 03:38:10;;;;;;;;;;;;;;;16.08;52.67;99278.75;10326024;28;861;-78
2023/11/08 03:43:06;;;;;;;;;;;;;;;16.08;52.87;99286.63;10325763;28;1914;-79
2023/11/08 03:48:01;;;;;;;;;;;;;;;16.07;52.58;99292.81;10326644;28;890;-78
2023/11/08 03:52:57;;;;;;;;;;;;;;;16.05;52.73;99295.50;10325633;28;1059;-78
2023/11/08 03:57:55;;;;;;;;;;;;;;;16.04;52.73;99292.97;10326785;28;841;-78
2023/11/08 04:02:51;;;;;;;;;;;;;;;16.03;52.83;99301.75;10325386;28;1901;-78
2023/11/08 04:07:46;;;;;;;;;;;;;;;16.03;52.84;99293.84;10326018;28;854;-78
2023/11/08 04:12:42;;;;;;;;;;;;;;;16.00;52.96;99303.56;10325284;28;786;-79
2023/11/08 04:17:38;;;;;;;;;;;;;;;16.01;52.81;99309.72;10325097;28;779;-78
2023/11/08 04:22:34;;;;;;;;;;;;;;;15.99;52.86;99308.91;10325591;28;1897;-78
2023/11/08 04:27:30;;;;;;;;;;;;;;;15.99;52.88;99306.28;10325944;28;810;-78
2023/11/08 04:32:26;;;;;;;;;;;;;;;15.97;52.96;99316.84;10325493;28;1206;-78
2023/11/08 04:37:22;;;;;;;;;;;;;;;15.96;52.94;99317.78;10328425;28;784;-78
2023/11/08 04:42:18;;;;;;;;;;;;;;;15.94;52.77;99301.22;10332073;28;1979;-78
2023/11/08 04:47:18;;;;;;;;;;;;;;;15.94;53.13;99303.84;10332477;28;845;-78
2023/11/08 04:52:13;;;;;;;;;;;;;;;16.04;52.29;99316.63;10332271;28;909;-78
2023/11/08 04:57:16;;;;;;;;;;;;;;;16.10;52.24;99304.03;10332673;28;824;-78
2023/11/08 05:02:11;;;;;;;;;;;;;;;16.14;52.21;99307.41;10332234;28;1959;-78
2023/11/08 05:07:07;;;;;;;;;;;;;;;16.18;52.04;99299.31;10331776;28;749;-78
2023/11/08 05:12:05;;;;;;;;;;;;;;;16.26;51.90;99309.47;10332134;28;788;-78
2023/11/08 05:17:01;;;;;;;;;;;;;;;16.33;51.80;99313.56;10331942;28;1033;-78
2023/11/08 05:21:57;;;;;;;;;;;;;;;16.40;51.64;99307.13;10331173;28;1959;-78
2023/11/08 05:26:53;;;;;;;;;;;;;;;16.45;51.69;99322.66;10331870;28;861;-78
2023/11/08 05:31:49;;;;;;;;;;;;;;;16.51;51.52;99318.94;10330521;28;1443;-78
2023/11/08 05:36:45;;;;;;;;;;;;;;;16.55;51.44;99325.75;10330897;28;838;-79
2023/11/08 05:41:41;;;;;;;;;;;;;;;16.57;51.28;99319.50;10330848;28;849;-79
2023/11/08 05:46:36;;;;;;;;;;;;;;;16.62;51.19;99328.03;10329352;28;1910;-80
2023/11/08 05:51:32;;;;;;;;;;;;;;;16.65;51.12;99343.69;10329887;28;870;-80
2023/11/08 05:56:28;;;;;;;;;;;;;;;16.64;51.09;99335.88;10329905;28;817;-79
2023/11/08 06:01:24;;;;;;;;;;;;;;;16.68;50.98;99342.69;10330293;28;875;-78
2023/11/08 06:06:22;;;;;;;;;;;;;;;16.70;51.07;99346.13;10330164;28;1898;-77
2023/11/08 06:11:18;;;;;;;;;;;;;;;16.69;50.98;99341.78;10329431;28;810;-77
2023/11/08 06:16:13;;;;;;;;;;;;;;;16.74;51.01;99344.19;10329790;28;916;-77
2023/11/08 06:21:09;;;;;;;;;;;;;;;16.74;50.95;99352.97;10329737;28;865;-78
2023/11/08 06:26:05;;;;;;;;;;;;;;;16.75;50.89;99359.06;10329324;28;1902;-77
2023/11/08 06:31:01;;;;;;;;;;;;;;;16.75;50.81;99354.66;10328523;28;1203;-78
2023/11/08 06:35:59;;;;;;;;;;;;;;;16.77;50.87;99362.50;10328772;28;882;-80
2023/11/08 06:40:55;;;;;;;;;;;;;;;16.98;50.29;99358.06;10327507;28;1000;-71
2023/11/08 06:45:51;;;;;;;;;;;;;;;17.08;50.45;99365.47;10327915;28;1969;-72
2023/11/08 06:50:47;;;;;;;;;;;;;;;17.10;50.27;99365.38;10327770;28;830;-73
2023/11/08 06:55:44;;;;;;;;;;;;;;;17.09;50.29;99366.31;10328130;28;849;-73
2023/11/08 07:00:40;;;;;;;;;;;;;;;17.11;50.22;99377.66;10327228;28;830;-72
2023/11/08 07:05:36;;;;;;;;;;;;;;;17.09;49.98;99377.69;10327696;28;1955;-72
2023/11/08 07:10:32;;;;;;;;;;;;;;;17.08;50.03;99388.28;10326995;28;823;-76
2023/11/08 07:15:28;;;;;;;;;;;;;;;17.06;50.17;99387.53;10326808;28;893;-72
2023/11/08 07:20:24;;;;;;;;;;;;;;;17.03;49.85;99391.16;10327283;28;886;-73
2023/11/08 07:25:20;;;;;;;;;;;;;;;17.02;50.22;99399.13;10327077;28;1902;-73
2023/11/08 07:30:16;;;;;;;;;;;;;;;17.03;50.16;99409.59;10325850;28;1640;-73
2023/11/08 07:35:12;;;;;;;;;;;;;;;17.02;50.55;99407.84;10326165;28;852;-73
2023/11/08 07:40:12;;;;;;;;;;;;;;;17.07;50.60;99413.78;10326043;28;906;-74
2023/11/08 07:45:08;;;;;;;;;;;;;;;17.11;50.79;99418.91;10326393;28;1914;-74
2023/11/08 07:50:05;;;;;;;;;;;;;;;17.03;50.56;99406.97;10326374;28;927;-73
2023/11/08 07:55:01;;;;;;;;;;;;;;;17.07;50.78;99407.66;10325283;28;924;-76
2023/11/08 07:59:57;;;;;;;;;;;;;;;17.06;50.60;99412.06;10325467;28;805;-73
2023/11/08 08:04:54;;;;;;;;;;;;;;;17.10;50.33;99407.50;10325617;28;1893;-72
2023/11/08 08:09:50;;;;;;;;;;;;;;;17.18;50.34;99404.53;10324780;28;939;-73
2023/11/08 08:14:46;;;;;;;;;;;;;;;17.15;50.12;99400.25;10324981;28;868;-75
2023/11/08 08:19:42;;;;;;;;;;;;;;;17.17;50.36;99408.09;10325075;28;972;-73
2023/11/08 08:24:38;;;;;;;;;;;;;;;17.21;50.15;99410.53;10324959;28;1902;-73
2023/11/08 08:29:34;;;;;;;;;;;;;;;17.22;50.21;99414.00;10324589;28;1267;-73
2023/11/08 08:34:30;;;;;;;;;;;;;;;17.26;50.05;99413.78;10324880;28;889;-72
2023/11/08 08:39:27;;;;;;;;;;;;;;;17.27;50.24;99412.88;10324041;28;988;-73
2023/11/08 08:44:23;;;;;;;;;;;;;;;17.28;50.23;99409.31;10321856;28;1981;-72
2023/11/08 08:49:20;;;;;;;;;;;;;;;17.29;50.21;99416.28;10324434;28;786;-73
2023/11/08 08:54:18;;;;;;;;;;;;;;;17.31;50.11;99405.66;10324422;28;845;-72
2023/11/08 08:59:13;;;;;;;;;;;;;;;17.36;49.87;99408.09;10324144;28;905;-72
2023/11/08 09:04:09;;;;;;;;;;;;;;;17.37;49.90;99415.94;10323486;28;1897;-72
2023/11/08 09:09:11;;;;;;;;;;;;;;;17.38;49.83;99416.78;10324218;28;768;-72
2023/11/08 09:14:08;;;;;;;;;;;;;;;17.32;50.07;99412.66;10323428;28;901;-78
2023/11/08 09:19:04;;;;;;;;;;;;;;;17.26;49.92;99397.13;10323922;28;861;-73
2023/11/08 09:24:00;;;;;;;;;;;;;;;17.29;49.96;99408.38;10327941;28;1949;-72
2023/11/08 09:28:58;;;;;;;;;;;;;;;17.38;49.85;99415.00;10330440;28;1211;-72
2023/11/08 09:33:56;;;;;;;;;;;;;;;17.37;49.79;99409.78;10330395;28;853;-72
2023/11/08 09:38:52;;;;;;;;;;;;;;;17.34;49.64;99415.22;10330520;28;817;-74
2023/11/08 09:43:49;;;;;;;;;;;;;;;17.38;49.44;99414.16;10330015;28;1914;-75
2023/11/08 09:48:45;;;;;;;;;;;;;;;17.34;49.71;99412.56;10330321;28;863;-74
2023/11/08 09:53:45;;;;;;;;;;;;;;;17.30;49.47;99406.59;10330734;28;924;-75
2023/11/08 09:58:41;;;;;;;;;;;;;;;17.33;49.70;99413.50;10330638;28;777;-74
2023/11/08 10:03:38;;;;;;;;;;;;;;;17.37;49.31;99420.31;10330239;28;1956;-72
2023/11/08 10:08:40;;;;;;;;;;;;;;;17.35;49.40;99412.50;10330982;28;889;-72
2023/11/08 10:13:35;;;;;;;;;;;;;;;17.40;49.51;99421.06;10329413;28;786;-72
2023/11/08 10:18:31;;;;;;;;;;;;;;;17.43;49.44;99407.72;10329160;28;1003;-72
2023/11/08 10:23:28;;;;;;;;;;;;;;;17.47;49.46;99411.06;10329369;28;1942;-72
2023/11/08 10:28:24;;;;;;;;;;;;;;;17.46;49.25;99404.94;10328716;28;894;-72
2023/11/08 10:33:20;;;;;;;;;;;;;;;17.45;49.53;99392.72;10328874;28;1120;-72
2023/11/08 10:38:16;;;;;;;;;;;;;;;17.49;49.24;99383.72;10328354;28;925;-72
2023/11/08 10:43:12;;;;;;;;;;;;;;;17.50;49.28;99380.19;10328664;28;1918;-72
2023/11/08 10:48:08;;;;;;;;;;;;;;;17.55;49.23;99381.72;10328745;28;953;-72
2023/11/08 10:53:04;;;;;;;;;;;;;;;17.52;49.35;99369.53;10327688;28;992;-72
2023/11/08 10:58:01;;;;;;;;;;;;;;;17.52;49.41;99374.81;10328237;28;966;-72
2023/11/08 11:02:57;;;;;;;;;;;;;;;17.55;49.23;99363.28;10327981;28;1943;-72
2023/11/08 11:07:54;;;;;;;;;;;;;;;17.52;49.21;99353.72;10327096;28;969;-72
2023/11/08 11:12:50;;;;;;;;;;;;;;;17.52;49.04;99341.41;10326972;28;897;-72
2023/11/08 11:17:46;;;;;;;;;;;;;;;17.58;48.61;99355.22;10327406;28;980;-72
2023/11/08 11:22:42;;;;;;;;;;;;;;;17.53;48.95;99345.78;10326437;28;1997;-71
2023/11/08 11:27:39;;;;;;;;;;;;;;;17.52;48.53;99349.31;10326474;28;905;-71
2023/11/08 11:32:35;;;;;;;;;;;;;;;17.48;48.85;99347.78;10326211;28;1195;-72
2023/11/08 11:37:31;;;;;;;;;;;;;;;17.59;48.57;99338.50;10326859;28;834;-72
2023/11/08 11:42:28;;;;;;;;;;;;;;;17.59;48.29;99344.63;10325908;28;1918;-72
2023/11/08 11:47:27;;;;;;;;;;;;;;;17.60;48.56;99333.13;10326110;28;906;-73
2023/11/08 11:52:24;;;;;;;;;;;;;;;17.63;48.62;99321.59;10325760;28;818;-73
2023/11/08 11:57:20;;;;;;;;;;;;;;;17.67;49.17;99337.19;10325579;28;1038;-72
2023/11/08 12:02:16;;;;;;;;;;;;;;;17.72;48.48;99332.53;10326100;28;1898;-73
2023/11/08 12:07:14;;;;;;;;;;;;;;;17.72;48.44;99327.25;10325429;28;857;-73
2023/11/08 12:12:10;;;;;;;;;;;;;;;17.71;48.58;99314.16;10325346;28;991;-72
2023/11/08 12:17:07;;;;;;;;;;;;;;;17.68;48.70;99325.72;10325816;28;813;-72
2023/11/08 12:22:05;;;;;;;;;;;;;;;17.65;48.81;99312.69;10325927;28;1894;-72
2023/11/08 12:27:01;;;;;;;;;;;;;;;17.75;48.43;99321.84;10325027;28;830;-72
2023/11/08 12:31:56;;;;;;;;;;;;;;;17.75;48.26;99326.25;10325121;28;1104;-73
2023/11/08 12:36:52;;;;;;;;;;;;;;;17.73;48.49;99323.69;10325456;28;916;-72
2023/11/08 12:41:49;;;;;;;;;;;;;;;17.80;48.42;99324.28;10324714;28;1078;-72
2023/11/08 12:46:46;;;;;;;;;;;;;;;17.84;48.32;99325.84;10324783;28;1905;-73
2023/11/08 12:51:41;;;;;;;;;;;;;;;17.93;48.31;99313.97;10321953;28;1116;-72
2023/11/08 12:56:38;;;;;;;;;;;;;;;17.86;48.57;99302.88;10324185;28;886;-72
2023/11/08 13:01:34;;;;;;;;;;;;;;;17.99;48.32;99299.63;10332417;28;885;-72
2023/11/08 13:06:30;;;;;;;;;;;;;;;17.96;48.09;99293.56;10331584;28;1889;-74
2023/11/08 13:11:26;;;;;;;;;;;;;;;17.87;48.40;99304.59;10331698;28;795;-70
2023/11/08 13:16:22;;;;;;;;;;;;;;;17.82;48.33;99295.22;10331393;28;917;-72
2023/11/08 13:21:18;;;;;;;;;;;;;;;17.83;48.26;99289.84;10330832;28;810;-72
2023/11/08 13:26:14;;;;;;;;;;;;;;;17.80;48.49;99284.72;10331415;28;1898;-73
2023/11/08 13:31:11;;;;;;;;;;;;;;;17.92;48.03;99280.59;10330466;28;1096;-74
2023/11/08 13:36:07;;;;;;;;;;;;;;;17.89;48.21;99275.50;10330637;28;882;-72
2023/11/08 13:41:03;;;;;;;;;;;;;;;17.86;48.05;99268.59;10329988;28;857;-70
2023/11/08 13:46:00;;;;;;;;;;;;;;;17.74;48.21;99263.94;10330216;28;1906;-70
2023/11/08 13:50:56;;;;;;;;;;;;;;;17.72;48.41;99252.63;10330206;28;802;-70
2023/11/08 13:55:52;;;;;;;;;;;;;;;17.72;48.26;99248.19;10330732;28;826;-70
2023/11/08 14:00:48;;;;;;;;;;;;;;;17.70;48.43;99247.41;10330768;28;1023;-72
2023/11/08 14:05:44;;;;;;;;;;;;;;;17.70;48.53;99251.81;10330267;28;1890;-72
2023/11/08 14:10:39;;;;;;;;;;;;;;;17.70;48.60;99249.19;10328928;28;794;-72
2023/11/08 14:15:36;;;;;;;;;;;;;;;17.73;48.74;99241.97;10329972;28;814;-72
2023/11/08 14:20:32;;;;;;;;;;;;;;;17.72;48.59;99244.69;10329898;28;829;-72
2023/11/08 14:25:28;;;;;;;;;;;;;;;17.71;48.62;99243.84;10328934;28;1897;-73
2023/11/08 14:30:24;;;;;;;;;;;;;;;17.73;48.54;99228.78;10328363;28;1239;-72
2023/11/08 14:35:21;;;;;;;;;;;;;;;17.74;48.59;99229.66;10329160;28;983;-72
2023/11/08 14:40:19;;;;;;;;;;;;;;;17.70;48.74;99220.19;10328313;28;980;-72
2023/11/08 14:45:16;;;;;;;;;;;;;;;17.71;48.48;99225.41;10328748;28;1906;-72
2023/11/08 14:50:11;;;;;;;;;;;;;;;17.72;48.55;99213.91;10328004;28;848;-72
2023/11/08 14:55:08;;;;;;;;;;;;;;;17.70;48.70;99202.59;10327637;28;818;-72
2023/11/08 15:00:06;;;;;;;;;;;;;;;17.67;48.60;99192.22;10327800;28;890;-73
2023/11/08 15:05:02;;;;;;;;;;;;;;;17.72;48.64;99194.63;10327490;28;1932;-72
2023/11/08 15:09:58;;;;;;;;;;;;;;;17.70;48.62;99185.94;10327892;28;790;-73
2023/11/08 15:14:54;;;;;;;;;;;;;;;17.67;48.63;99178.19;10327003;28;755;-72
2023/11/08 15:19:50;;;;;;;;;;;;;;;17.69;48.84;99178.97;10326427;28;1019;-73
2023/11/08 15:24:49;;;;;;;;;;;;;;;17.71;48.90;99153.38;10327140;28;1960;-72
2023/11/08 15:29:45;;;;;;;;;;;;;;;17.69;49.14;99171.06;10325993;28;1112;-73
2023/11/08 15:34:41;;;;;;;;;;;;;;;17.67;48.94;99160.59;10326889;28;921;-73
2023/11/08 15:39:36;;;;;;;;;;;;;;;17.66;49.18;99150.16;10326727;28;842;-73
2023/11/08 15:44:32;;;;;;;;;;;;;;;17.56;49.28;99141.84;10325887;28;1972;-73
2023/11/08 15:49:28;;;;;;;;;;;;;;;17.53;49.13;99131.47;10325902;28;771;-70
2023/11/08 15:54:24;;;;;;;;;;;;;;;17.49;49.22;99122.88;10325777;28;894;-72
2023/11/08 15:59:20;;;;;;;;;;;;;;;17.53;49.31;99126.22;10326247;28;775;-72
2023/11/08 16:04:17;;;;;;;;;;;;;;;17.55;49.30;99116.41;10325483;28;1898;-73
2023/11/08 16:09:13;;;;;;;;;;;;;;;17.58;49.12;99108.38;10325990;28;944;-72
2023/11/08 16:14:08;;;;;;;;;;;;;;;17.57;49.18;99079.47;10326358;28;850;-72
2023/11/08 16:19:04;;;;;;;;;;;;;;;17.58;49.24;99086.41;10325204;28;906;-72
2023/11/08 16:24:01;;;;;;;;;;;;;;;17.58;49.10;99087.28;10324474;28;1957;-72
2023/11/08 16:28:57;;;;;;;;;;;;;;;17.60;48.94;99085.41;10325404;28;1021;-72
2023/11/08 16:33:53;;;;;;;;;;;;;;;17.61;48.73;99081.84;10329748;28;736;-73
2023/11/08 16:38:49;;;;;;;;;;;;;;;17.65;48.73;99067.56;10333259;28;957;-72
2023/11/08 16:43:45;;;;;;;;;;;;;;;17.63;48.89;99064.19;10333450;28;1964;-69
2023/11/08 16:48:41;;;;;;;;;;;;;;;17.63;48.80;99045.75;10332763;28;854;-68
2023/11/08 16:53:37;;;;;;;;;;;;;;;17.65;48.63;99062.28;10332749;28;769;-73
2023/11/08 16:58:33;;;;;;;;;;;;;;;17.66;48.84;99068.44;10332352;28;809;-73
2023/11/08 17:03:29;;;;;;;;;;;;;;;17.71;48.96;99069.91;10332215;28;1881;-73
2023/11/08 17:08:25;;;;;;;;;;;;;;;17.72;48.94;99055.78;10331348;28;980;-72
2023/11/08 17:13:21;;;;;;;;;;;;;;;17.71;48.98;99053.22;10332370;28;872;-72
2023/11/08 17:18:17;;;;;;;;;;;;;;;17.70;48.85;99041.81;10331465;28;918;-73
2023/11/08 17:23:13;;;;;;;;;;;;;;;17.75;48.86;99034.50;10332478;28;1886;-73
2023/11/08 17:28:09;;;;;;;;;;;;;;;17.75;48.72;99018.69;10331088;28;1004;-73
2023/11/08 17:33:06;;;;;;;;;;;;;;;17.74;49.03;99014.38;10332100;28;1263;-73
2023/11/08 17:38:02;;;;;;;;;;;;;;;17.73;48.93;99022.34;10330830;28;977;-73
2023/11/08 17:42:58;;;;;;;;;;;;;;;17.78;48.88;99020.31;10330346;28;1938;-73
2023/11/08 17:47:53;;;;;;;;;;;;;;;17.78;48.77;99006.28;10330827;28;878;-73
2023/11/08 17:52:50;;;;;;;;;;;;;;;17.77;49.07;98994.06;10330959;28;925;-73
2023/11/08 17:57:46;;;;;;;;;;;;;;;17.78;48.80;98975.50;10330097;28;866;-72
2023/11/08 18:02:41;;;;;;;;;;;;;;;17.81;48.82;98972.72;10330427;28;1957;-72
2023/11/08 18:07:37;;;;;;;;;;;;;;;17.82;48.85;98973.59;10329212;28;854;-73
2023/11/08 18:12:33;;;;;;;;;;;;;;;17.79;48.92;98966.72;10329552;28;972;-73
2023/11/08 18:17:29;;;;;;;;;;;;;;;17.84;48.69;98977.84;10329540;28;976;-72
2023/11/08 18:22:25;;;;;;;;;;;;;;;17.84;48.69;98961.16;10329134;28;1902;-73
2023/11/08 18:27:21;;;;;;;;;;;;;;;17.81;48.79;98966.63;10329354;28;945;-73
2023/11/08 18:32:17;;;;;;;;;;;;;;;17.81;48.88;98956.91;10328884;28;1287;-73
2023/11/08 18:37:13;;;;;;;;;;;;;;;17.84;48.85;98940.94;10328054;28;814;-72
2023/11/08 18:42:09;;;;;;;;;;;;;;;17.82;48.74;98916.44;10328957;28;909;-72
2023/11/08 18:47:04;;;;;;;;;;;;;;;17.83;48.74;98923.41;10328134;28;1913;-72
2023/11/08 18:52:00;;;;;;;;;;;;;;;17.85;48.67;98926.81;10328581;28;831;-73
2023/11/08 18:56:56;;;;;;;;;;;;;;;17.85;48.61;98915.44;10327438;28;1003;-72
2023/11/08 19:01:52;;;;;;;;;;;;;;;17.83;48.62;98917.28;10327622;28;968;-72
2023/11/08 19:06:48;;;;;;;;;;;;;;;17.83;48.58;98906.75;10327298;28;1965;-72
2023/11/08 19:11:46;;;;;;;;;;;;;;;17.85;48.57;98895.19;10327190;28;855;-73
2023/11/08 19:16:42;;;;;;;;;;;;;;;17.85;48.69;98889.06;10326895;28;909;-73
2023/11/08 19:21:38;;;;;;;;;;;;;;;17.82;48.57;98876.06;10327334;28;872;-73
2023/11/08 19:26:34;;;;;;;;;;;;;;;17.88;48.45;98867.78;10326525;28;1939;-73
2023/11/08 19:31:29;;;;;;;;;;;;;;;17.87;48.68;98850.28;10326312;28;1208;-73
2023/11/08 19:36:26;;;;;;;;;;;;;;;17.86;48.46;98869.66;10326906;28;830;-72
2023/11/08 19:41:24;;;;;;;;;;;;;;;17.87;48.38;98859.03;10326320;28;857;-72
2023/11/08 19:46:20;;;;;;;;;;;;;;;17.88;48.50;98862.53;10326755;28;1973;-73
2023/11/08 19:51:16;;;;;;;;;;;;;;;17.87;48.45;98848.50;10326474;28;929;-72
2023/11/08 19:56:14;;;;;;;;;;;;;;;17.90;48.59;98850.09;10326353;28;790;-72
2023/11/08 20:01:10;;;;;;;;;;;;;;;17.92;48.60;98835.03;10326210;28;867;-73
2023/11/08 20:06:07;;;;;;;;;;;;;;;17.91;48.55;98841.25;10325454;28;1952;-72
2023/11/08 20:11:03;;;;;;;;;;;;;;;17.88;48.48;98837.00;10325366;28;973;-73
2023/11/08 20:16:00;;;;;;;;;;;;;;;17.90;48.58;98834.28;10325998;28;917;-73
2023/11/08 20:20:56;;;;;;;;;;;;;;;17.92;48.41;98830.63;10325823;28;809;-73
2023/11/08 20:25:52;;;;;;;;;;;;;;;17.88;48.57;98825.63;10324496;28;1959;-73
2023/11/08 20:30:47;;;;;;;;;;;;;;;17.89;48.50;98830.81;10325137;28;1395;-73
2023/11/08 20:35:43;;;;;;;;;;;;;;;17.93;48.29;98831.47;10325609;28;970;-73
2023/11/08 20:40:39;;;;;;;;;;;;;;;17.92;48.42;98809.53;10324284;28;1032;-73
2023/11/08 20:45:35;;;;;;;;;;;;;;;17.88;48.51;98805.38;10324079;28;1922;-73
2023/11/08 20:50:31;;;;;;;;;;;;;;;17.85;48.36;98820.53;10324669;28;847;-73
2023/11/08 20:55:27;;;;;;;;;;;;;;;17.82;48.33;98812.81;10324428;28;770;-73
2023/11/08 21:00:23;;;;;;;;;;;;;;;17.82;48.64;98789.09;10325081;28;968;-73
2023/11/08 21:05:19;;;;;;;;;;;;;;;17.81;48.47;98787.38;10324353;28;1959;-73
2023/11/08 21:10:15;;;;;;;;;;;;;;;17.81;48.63;98784.72;10324780;28;838;-73
2023/11/08 21:15:10;;;;;;;;;;;;;;;17.79;48.55;98776.03;10324317;28;826;-72
2023/11/08 21:20:09;;;;;;;;;;;;;;;17.77;48.60;98781.41;10329243;28;945;-72
2023/11/08 21:25:04;;;;;;;;;;;;;;;17.79;48.64;98783.94;10331244;28;1960;-72
2023/11/08 21:30:00;;;;;;;;;;;;;;;17.77;48.70;98765.59;10331225;28;1264;-72
2023/11/08 21:34:56;;;;;;;;;;;;;;;17.77;48.63;98770.03;10331664;28;794;-72
2023/11/08 21:39:55;;;;;;;;;;;;;;;17.74;48.62;98755.22;10330271;28;877;-72
2023/11/08 21:44:52;;;;;;;;;;;;;;;17.75;48.74;98749.00;10331297;28;1906;-72
2023/11/08 21:49:48;;;;;;;;;;;;;;;17.76;48.67;98737.50;10330647;28;922;-72
2023/11/08 21:54:45;;;;;;;;;;;;;;;17.75;48.66;98731.41;10330798;28;981;-72
2023/11/08 21:59:41;;;;;;;;;;;;;;;17.73;48.86;98741.19;10330716;28;873;-72
2023/11/08 22:04:37;;;;;;;;;;;;;;;17.69;48.81;98741.47;10330696;28;1894;-72
2023/11/08 22:09:33;;;;;;;;;;;;;;;17.66;48.74;98729.31;10329773;28;864;-72
2023/11/08 22:14:28;;;;;;;;;;;;;;;17.62;49.01;98725.16;10329718;28;782;-72
2023/11/08 22:19:24;;;;;;;;;;;;;;;17.58;49.11;98712.25;10330183;28;862;-72
2023/11/08 22:24:20;;;;;;;;;;;;;;;17.54;49.10;98711.59;10329149;28;1969;-72
2023/11/08 22:29:16;;;;;;;;;;;;;;;17.53;49.24;98699.38;10327642;28;1467;-72
2023/11/08 22:34:12;;;;;;;;;;;;;;;17.48;49.00;98698.78;10329949;28;770;-72
2023/11/08 22:39:09;;;;;;;;;;;;;;;17.46;49.20;98693.59;10328570;28;873;-72
2023/11/08 22:44:05;;;;;;;;;;;;;;;17.44;49.19;98684.94;10327679;28;1918;-72
2023/11/08 22:49:01;;;;;;;;;;;;;;;17.40;49.17;98677.31;10328155;28;855;-72
2023/11/08 22:54:01;;;;;;;;;;;;;;;17.37;49.27;98686.25;10328523;28;988;-73
2023/11/08 22:58:59;;;;;;;;;;;;;;;17.36;49.43;98683.69;10327640;28;964;-72
2023/11/08 23:03:55;;;;;;;;;;;;;;;17.28;49.53;98669.19;10328082;28;1894;-73
2023/11/08 23:08:51;;;;;;;;;;;;;;;17.28;49.72;98653.38;10327920;28;817;-72
2023/11/08 23:13:47;;;;;;;;;;;;;;;17.23;49.77;98641.41;10327340;28;802;-73
2023/11/08 23:18:43;;;;;;;;;;;;;;;17.19;49.82;98638.13;10327546;28;789;-72
2023/11/08 23:23:39;;;;;;;;;;;;;;;17.17;49.83;98634.72;10327273;28;1894;-72
2023/11/08 23:28:35;;;;;;;;;;;;;;;17.15;49.89;98631.34;10326631;28;1036;-72
2023/11/08 23:33:32;;;;;;;;;;;;;;;17.16;49.83;98633.03;10326982;28;1355;-72
2023/11/08 23:38:27;;;;;;;;;;;;;;;17.14;49.90;98624.38;10326287;28;861;-72
2023/11/08 23:43:23;;;;;;;;;;;;;;;17.10;49.98;98604.41;10325719;28;1914;-72
2023/11/08 23:48:19;;;;;;;;;;;;;;;17.06;49.87;98624.81;10326048;28;895;-72
2023/11/08 23:53:15;;;;;;;;;;;;;;;17.08;50.08;98616.81;10325864;28;876;-72
2023/11/08 23:58:12;;;;;;;;;;;;;;;17.04;50.17;98602.16;10326403;28;774;-72
